sensor_id;sensor_type;location;lat;lon;timestamp;P1;durP1;ratioP1;P2;durP2;ratioP2
62707;SDS011;48769;51.624;5.886;2024-03-25T00:01:22;33.15;;;9.50;;
62707;SDS011;48769;51.624;5.886;2024-03-25T00:03:48;38.33;;;12.95;;
62707;SDS011;48769;51.624;5.886;2024-03-25T00:06:16;50.45;;;20.58;;
62707;SDS011;48769;51.624;5.886;2024-03-25T00:08:41;107.40;;;50.38;;
62707;SDS011;48769;51.624;5.886;2024-03-25T00:11:07;157.38;;;84.07;;
62707;SDS011;48769;51.624;5.886;2024-03-25T00:13:35;163.30;;;91.82;;
62707;SDS011;48769;51.624;5.886;2024-03-25T00:16:01;168.23;;;94.15;;
62707;SDS011;48769;51.624;5.886;2024-03-25T00:18:26;177.15;;;93.22;;
62707;SDS011;48769;51.624;5.886;2024-03-25T00:20:52;149.32;;;77.25;;
62707;SDS011;48769;51.624;5.886;2024-03-25T00:23:17;128.73;;;65.20;;
62707;SDS011;48769;51.624;5.886;2024-03-25T00:25:43;102.80;;;50.38;;
62707;SDS011;48769;51.624;5.886;2024-03-25T00:28:08;75.60;;;34.55;;
62707;SDS011;48769;51.624;5.886;2024-03-25T00:30:33;69.55;;;29.80;;
62707;SDS011;48769;51.624;5.886;2024-03-25T00:32:59;73.55;;;22.95;;
62707;SDS011;48769;51.624;5.886;2024-03-25T00:35:24;41.88;;;19.52;;
62707;SDS011;48769;51.624;5.886;2024-03-25T00:37:50;48.78;;;18.33;;
62707;SDS011;48769;51.624;5.886;2024-03-25T00:40:15;46.75;;;16.63;;
62707;SDS011;48769;51.624;5.886;2024-03-25T00:42:41;47.13;;;16.13;;
62707;SDS011;48769;51.624;5.886;2024-03-25T00:45:06;48.50;;;17.27;;
62707;SDS011;48769;51.624;5.886;2024-03-25T00:47:32;50.58;;;17.23;;
62707;SDS011;48769;51.624;5.886;2024-03-25T00:49:58;58.92;;;20.02;;
62707;SDS011;48769;51.624;5.886;2024-03-25T00:52:23;60.63;;;20.38;;
62707;SDS011;48769;51.624;5.886;2024-03-25T00:54:49;57.63;;;19.33;;
62707;SDS011;48769;51.624;5.886;2024-03-25T00:57:14;51.25;;;17.00;;
62707;SDS011;48769;51.624;5.886;2024-03-25T00:59:39;48.30;;;14.95;;
62707;SDS011;48769;51.624;5.886;2024-03-25T01:02:05;46.45;;;12.40;;
62707;SDS011;48769;51.624;5.886;2024-03-25T01:04:30;50.47;;;12.18;;
62707;SDS011;48769;51.624;5.886;2024-03-25T01:06:55;40.80;;;9.95;;
62707;SDS011;48769;51.624;5.886;2024-03-25T01:09:20;32.63;;;7.60;;
62707;SDS011;48769;51.624;5.886;2024-03-25T01:11:47;34.90;;;8.68;;
62707;SDS011;48769;51.624;5.886;2024-03-25T01:14:12;31.92;;;8.45;;
62707;SDS011;48769;51.624;5.886;2024-03-25T01:16:37;47.13;;;7.32;;
62707;SDS011;48769;51.624;5.886;2024-03-25T01:19:03;40.40;;;6.55;;
62707;SDS011;48769;51.624;5.886;2024-03-25T01:21:28;35.28;;;7.75;;
62707;SDS011;48769;51.624;5.886;2024-03-25T01:23:55;43.30;;;7.68;;
62707;SDS011;48769;51.624;5.886;2024-03-25T01:26:20;35.30;;;7.00;;
62707;SDS011;48769;51.624;5.886;2024-03-25T01:28:45;44.03;;;7.30;;
62707;SDS011;48769;51.624;5.886;2024-03-25T01:31:11;41.63;;;6.78;;
62707;SDS011;48769;51.624;5.886;2024-03-25T01:33:36;36.88;;;7.25;;
62707;SDS011;48769;51.624;5.886;2024-03-25T01:36:02;39.25;;;9.02;;
62707;SDS011;48769;51.624;5.886;2024-03-25T01:38:27;38.80;;;7.10;;
62707;SDS011;48769;51.624;5.886;2024-03-25T01:40:53;44.97;;;7.35;;
62707;SDS011;48769;51.624;5.886;2024-03-25T01:43:18;36.13;;;6.90;;
62707;SDS011;48769;51.624;5.886;2024-03-25T01:45:43;31.52;;;7.45;;
62707;SDS011;48769;51.624;5.886;2024-03-25T01:48:09;35.75;;;7.75;;
62707;SDS011;48769;51.624;5.886;2024-03-25T01:50:37;43.50;;;6.55;;
62707;SDS011;48769;51.624;5.886;2024-03-25T01:53:12;32.25;;;5.95;;
62707;SDS011;48769;51.624;5.886;2024-03-25T01:55:39;43.63;;;6.82;;
62707;SDS011;48769;51.624;5.886;2024-03-25T01:58:05;34.92;;;6.63;;
62707;SDS011;48769;51.624;5.886;2024-03-25T02:00:31;28.02;;;6.97;;
62707;SDS011;48769;51.624;5.886;2024-03-25T02:02:58;44.00;;;6.70;;
62707;SDS011;48769;51.624;5.886;2024-03-25T02:05:23;35.58;;;7.00;;
62707;SDS011;48769;51.624;5.886;2024-03-25T02:07:48;37.90;;;6.07;;
62707;SDS011;48769;51.624;5.886;2024-03-25T02:10:14;37.60;;;6.93;;
62707;SDS011;48769;51.624;5.886;2024-03-25T02:12:43;39.47;;;6.20;;
62707;SDS011;48769;51.624;5.886;2024-03-25T02:15:10;39.67;;;6.97;;
62707;SDS011;48769;51.624;5.886;2024-03-25T02:17:38;32.40;;;6.32;;
62707;SDS011;48769;51.624;5.886;2024-03-25T02:20:03;39.67;;;8.05;;
62707;SDS011;48769;51.624;5.886;2024-03-25T02:22:36;34.38;;;7.25;;
62707;SDS011;48769;51.624;5.886;2024-03-25T02:25:01;29.60;;;5.63;;
62707;SDS011;48769;51.624;5.886;2024-03-25T02:27:36;42.63;;;7.55;;
62707;SDS011;48769;51.624;5.886;2024-03-25T02:30:06;29.88;;;6.55;;
62707;SDS011;48769;51.624;5.886;2024-03-25T02:32:38;39.40;;;6.72;;
62707;SDS011;48769;51.624;5.886;2024-03-25T02:35:08;38.05;;;6.18;;
62707;SDS011;48769;51.624;5.886;2024-03-25T02:37:37;36.97;;;7.00;;
62707;SDS011;48769;51.624;5.886;2024-03-25T02:40:04;26.35;;;5.68;;
62707;SDS011;48769;51.624;5.886;2024-03-25T02:42:34;40.55;;;7.18;;
62707;SDS011;48769;51.624;5.886;2024-03-25T02:45:05;35.33;;;6.82;;
62707;SDS011;48769;51.624;5.886;2024-03-25T02:47:30;37.08;;;6.10;;
62707;SDS011;48769;51.624;5.886;2024-03-25T02:49:56;42.25;;;7.00;;
62707;SDS011;48769;51.624;5.886;2024-03-25T02:52:21;43.75;;;6.10;;
62707;SDS011;48769;51.624;5.886;2024-03-25T02:54:47;36.45;;;6.95;;
62707;SDS011;48769;51.624;5.886;2024-03-25T02:57:12;40.40;;;6.70;;
62707;SDS011;48769;51.624;5.886;2024-03-25T02:59:38;39.65;;;8.20;;
62707;SDS011;48769;51.624;5.886;2024-03-25T03:02:03;46.10;;;9.23;;
62707;SDS011;48769;51.624;5.886;2024-03-25T03:04:28;34.70;;;6.85;;
62707;SDS011;48769;51.624;5.886;2024-03-25T03:06:54;32.10;;;6.95;;
62707;SDS011;48769;51.624;5.886;2024-03-25T03:09:19;30.27;;;6.68;;
62707;SDS011;48769;51.624;5.886;2024-03-25T03:11:44;25.48;;;5.75;;
62707;SDS011;48769;51.624;5.886;2024-03-25T03:14:10;36.33;;;6.32;;
62707;SDS011;48769;51.624;5.886;2024-03-25T03:16:35;30.25;;;5.63;;
62707;SDS011;48769;51.624;5.886;2024-03-25T03:19:00;35.88;;;6.45;;
62707;SDS011;48769;51.624;5.886;2024-03-25T03:21:26;46.28;;;8.18;;
62707;SDS011;48769;51.624;5.886;2024-03-25T03:23:51;38.75;;;6.38;;
62707;SDS011;48769;51.624;5.886;2024-03-25T03:26:16;41.28;;;6.35;;
62707;SDS011;48769;51.624;5.886;2024-03-25T03:28:42;45.90;;;7.28;;
62707;SDS011;48769;51.624;5.886;2024-03-25T03:31:07;33.70;;;6.68;;
62707;SDS011;48769;51.624;5.886;2024-03-25T03:33:33;25.33;;;6.70;;
62707;SDS011;48769;51.624;5.886;2024-03-25T03:35:58;31.40;;;6.57;;
62707;SDS011;48769;51.624;5.886;2024-03-25T03:38:23;44.67;;;7.60;;
62707;SDS011;48769;51.624;5.886;2024-03-25T03:40:56;35.25;;;6.75;;
62707;SDS011;48769;51.624;5.886;2024-03-25T03:43:25;29.27;;;5.65;;
62707;SDS011;48769;51.624;5.886;2024-03-25T03:45:51;36.35;;;6.05;;
62707;SDS011;48769;51.624;5.886;2024-03-25T03:48:16;41.33;;;7.13;;
62707;SDS011;48769;51.624;5.886;2024-03-25T03:50:42;35.00;;;8.45;;
62707;SDS011;48769;51.624;5.886;2024-03-25T03:53:08;32.53;;;6.35;;
62707;SDS011;48769;51.624;5.886;2024-03-25T03:55:33;33.38;;;6.82;;
62707;SDS011;48769;51.624;5.886;2024-03-25T03:57:59;33.72;;;7.07;;
62707;SDS011;48769;51.624;5.886;2024-03-25T04:00:24;29.60;;;7.50;;
62707;SDS011;48769;51.624;5.886;2024-03-25T04:02:49;27.23;;;7.18;;
62707;SDS011;48769;51.624;5.886;2024-03-25T04:05:15;37.65;;;6.97;;
62707;SDS011;48769;51.624;5.886;2024-03-25T04:07:40;32.42;;;6.13;;
62707;SDS011;48769;51.624;5.886;2024-03-25T04:10:05;53.15;;;7.43;;
62707;SDS011;48769;51.624;5.886;2024-03-25T04:12:31;41.30;;;6.93;;
62707;SDS011;48769;51.624;5.886;2024-03-25T04:14:57;33.95;;;6.85;;
62707;SDS011;48769;51.624;5.886;2024-03-25T04:17:22;40.30;;;7.70;;
62707;SDS011;48769;51.624;5.886;2024-03-25T04:19:48;37.70;;;6.13;;
62707;SDS011;48769;51.624;5.886;2024-03-25T04:22:14;42.13;;;8.98;;
62707;SDS011;48769;51.624;5.886;2024-03-25T04:24:39;41.85;;;7.68;;
62707;SDS011;48769;51.624;5.886;2024-03-25T04:27:05;37.13;;;7.10;;
62707;SDS011;48769;51.624;5.886;2024-03-25T04:29:30;30.23;;;9.07;;
62707;SDS011;48769;51.624;5.886;2024-03-25T04:31:55;31.50;;;6.55;;
62707;SDS011;48769;51.624;5.886;2024-03-25T04:34:21;32.78;;;7.93;;
62707;SDS011;48769;51.624;5.886;2024-03-25T04:36:48;35.92;;;7.47;;
62707;SDS011;48769;51.624;5.886;2024-03-25T04:39:13;34.30;;;7.38;;
62707;SDS011;48769;51.624;5.886;2024-03-25T04:41:39;35.53;;;7.68;;
62707;SDS011;48769;51.624;5.886;2024-03-25T04:44:05;37.67;;;7.20;;
62707;SDS011;48769;51.624;5.886;2024-03-25T04:46:31;43.72;;;8.73;;
62707;SDS011;48769;51.624;5.886;2024-03-25T04:48:56;30.85;;;8.88;;
62707;SDS011;48769;51.624;5.886;2024-03-25T04:51:22;34.17;;;8.10;;
62707;SDS011;48769;51.624;5.886;2024-03-25T04:53:48;33.92;;;7.55;;
62707;SDS011;48769;51.624;5.886;2024-03-25T04:56:13;34.65;;;9.75;;
62707;SDS011;48769;51.624;5.886;2024-03-25T04:58:38;34.95;;;10.05;;
62707;SDS011;48769;51.624;5.886;2024-03-25T05:01:04;39.97;;;9.13;;
62707;SDS011;48769;51.624;5.886;2024-03-25T05:03:29;34.70;;;9.20;;
62707;SDS011;48769;51.624;5.886;2024-03-25T05:05:54;37.13;;;10.63;;
62707;SDS011;48769;51.624;5.886;2024-03-25T05:08:20;38.58;;;11.32;;
62707;SDS011;48769;51.624;5.886;2024-03-25T05:10:45;30.77;;;9.60;;
62707;SDS011;48769;51.624;5.886;2024-03-25T05:13:11;42.10;;;10.50;;
62707;SDS011;48769;51.624;5.886;2024-03-25T05:15:36;35.08;;;9.55;;
62707;SDS011;48769;51.624;5.886;2024-03-25T05:18:01;31.10;;;8.52;;
62707;SDS011;48769;51.624;5.886;2024-03-25T05:20:27;44.80;;;10.35;;
62707;SDS011;48769;51.624;5.886;2024-03-25T05:22:52;50.92;;;10.52;;
62707;SDS011;48769;51.624;5.886;2024-03-25T05:25:17;46.63;;;10.88;;
62707;SDS011;48769;51.624;5.886;2024-03-25T05:27:42;39.13;;;11.85;;
62707;SDS011;48769;51.624;5.886;2024-03-25T05:30:08;43.58;;;10.35;;
62707;SDS011;48769;51.624;5.886;2024-03-25T05:32:33;39.47;;;11.35;;
62707;SDS011;48769;51.624;5.886;2024-03-25T05:34:59;45.72;;;12.00;;
62707;SDS011;48769;51.624;5.886;2024-03-25T05:37:24;44.63;;;13.27;;
62707;SDS011;48769;51.624;5.886;2024-03-25T05:39:49;46.05;;;13.85;;
62707;SDS011;48769;51.624;5.886;2024-03-25T05:42:15;47.85;;;12.60;;
62707;SDS011;48769;51.624;5.886;2024-03-25T05:44:40;38.85;;;13.20;;
62707;SDS011;48769;51.624;5.886;2024-03-25T05:47:05;30.60;;;13.02;;
62707;SDS011;48769;51.624;5.886;2024-03-25T05:49:31;44.72;;;13.23;;
62707;SDS011;48769;51.624;5.886;2024-03-25T05:51:56;44.58;;;13.13;;
62707;SDS011;48769;51.624;5.886;2024-03-25T05:54:21;48.08;;;15.40;;
62707;SDS011;48769;51.624;5.886;2024-03-25T05:56:50;43.45;;;16.33;;
62707;SDS011;48769;51.624;5.886;2024-03-25T05:59:15;51.47;;;15.95;;
62707;SDS011;48769;51.624;5.886;2024-03-25T06:01:41;47.88;;;14.90;;
62707;SDS011;48769;51.624;5.886;2024-03-25T06:04:06;48.47;;;16.45;;
62707;SDS011;48769;51.624;5.886;2024-03-25T06:06:31;37.72;;;15.43;;
62707;SDS011;48769;51.624;5.886;2024-03-25T06:08:57;41.78;;;16.33;;
62707;SDS011;48769;51.624;5.886;2024-03-25T06:11:22;49.88;;;15.15;;
62707;SDS011;48769;51.624;5.886;2024-03-25T06:13:48;42.10;;;15.35;;
62707;SDS011;48769;51.624;5.886;2024-03-25T06:16:13;47.22;;;21.38;;
62707;SDS011;48769;51.624;5.886;2024-03-25T06:18:39;48.70;;;17.63;;
62707;SDS011;48769;51.624;5.886;2024-03-25T06:21:05;45.28;;;16.83;;
62707;SDS011;48769;51.624;5.886;2024-03-25T06:23:30;39.55;;;15.77;;
62707;SDS011;48769;51.624;5.886;2024-03-25T06:25:56;44.88;;;16.40;;
62707;SDS011;48769;51.624;5.886;2024-03-25T06:28:21;51.58;;;18.55;;
62707;SDS011;48769;51.624;5.886;2024-03-25T06:30:47;45.35;;;18.33;;
62707;SDS011;48769;51.624;5.886;2024-03-25T06:33:32;43.20;;;16.83;;
62707;SDS011;48769;51.624;5.886;2024-03-25T06:36:16;49.40;;;18.92;;
62707;SDS011;48769;51.624;5.886;2024-03-25T06:38:42;46.53;;;18.88;;
62707;SDS011;48769;51.624;5.886;2024-03-25T06:41:07;43.17;;;19.23;;
62707;SDS011;48769;51.624;5.886;2024-03-25T06:43:33;39.55;;;17.95;;
62707;SDS011;48769;51.624;5.886;2024-03-25T06:45:58;44.40;;;18.73;;
62707;SDS011;48769;51.624;5.886;2024-03-25T06:48:23;37.38;;;18.13;;
62707;SDS011;48769;51.624;5.886;2024-03-25T06:50:52;40.85;;;18.98;;
62707;SDS011;48769;51.624;5.886;2024-03-25T06:53:21;43.33;;;18.88;;
62707;SDS011;48769;51.624;5.886;2024-03-25T06:55:50;40.00;;;19.17;;
62707;SDS011;48769;51.624;5.886;2024-03-25T06:58:20;42.13;;;20.02;;
62707;SDS011;48769;51.624;5.886;2024-03-25T07:00:46;36.47;;;19.27;;
62707;SDS011;48769;51.624;5.886;2024-03-25T07:03:13;38.92;;;19.00;;
62707;SDS011;48769;51.624;5.886;2024-03-25T07:05:38;45.00;;;20.13;;
62707;SDS011;48769;51.624;5.886;2024-03-25T07:08:04;44.63;;;19.38;;
62707;SDS011;48769;51.624;5.886;2024-03-25T07:10:30;40.63;;;19.65;;
62707;SDS011;48769;51.624;5.886;2024-03-25T07:12:55;38.80;;;19.20;;
62707;SDS011;48769;51.624;5.886;2024-03-25T07:15:20;35.60;;;18.23;;
62707;SDS011;48769;51.624;5.886;2024-03-25T07:17:46;41.42;;;19.65;;
62707;SDS011;48769;51.624;5.886;2024-03-25T07:20:12;38.28;;;18.52;;
62707;SDS011;48769;51.624;5.886;2024-03-25T07:22:37;43.35;;;19.33;;
62707;SDS011;48769;51.624;5.886;2024-03-25T07:25:03;38.10;;;19.35;;
62707;SDS011;48769;51.624;5.886;2024-03-25T07:27:29;33.25;;;18.73;;
62707;SDS011;48769;51.624;5.886;2024-03-25T07:29:54;39.97;;;19.60;;
62707;SDS011;48769;51.624;5.886;2024-03-25T07:32:19;34.83;;;19.85;;
62707;SDS011;48769;51.624;5.886;2024-03-25T07:34:44;37.05;;;17.73;;
62707;SDS011;48769;51.624;5.886;2024-03-25T07:37:11;32.65;;;17.80;;
62707;SDS011;48769;51.624;5.886;2024-03-25T07:39:36;36.35;;;17.50;;
62707;SDS011;48769;51.624;5.886;2024-03-25T07:42:01;36.45;;;17.50;;
62707;SDS011;48769;51.624;5.886;2024-03-25T07:44:27;35.50;;;16.08;;
62707;SDS011;48769;51.624;5.886;2024-03-25T07:46:52;34.30;;;16.50;;
62707;SDS011;48769;51.624;5.886;2024-03-25T07:49:17;29.80;;;15.25;;
62707;SDS011;48769;51.624;5.886;2024-03-25T07:51:43;33.53;;;16.02;;
62707;SDS011;48769;51.624;5.886;2024-03-25T07:54:08;31.23;;;15.15;;
62707;SDS011;48769;51.624;5.886;2024-03-25T07:56:35;29.13;;;13.73;;
62707;SDS011;48769;51.624;5.886;2024-03-25T07:59:02;29.50;;;13.88;;
62707;SDS011;48769;51.624;5.886;2024-03-25T08:01:27;30.35;;;13.63;;
62707;SDS011;48769;51.624;5.886;2024-03-25T08:03:53;29.15;;;13.13;;
62707;SDS011;48769;51.624;5.886;2024-03-25T08:06:18;23.73;;;12.82;;
62707;SDS011;48769;51.624;5.886;2024-03-25T08:08:46;24.77;;;12.02;;
62707;SDS011;48769;51.624;5.886;2024-03-25T08:11:11;20.58;;;10.95;;
62707;SDS011;48769;51.624;5.886;2024-03-25T08:13:37;26.85;;;11.52;;
62707;SDS011;48769;51.624;5.886;2024-03-25T08:16:02;23.90;;;10.82;;
62707;SDS011;48769;51.624;5.886;2024-03-25T08:18:28;28.15;;;11.13;;
62707;SDS011;48769;51.624;5.886;2024-03-25T08:20:53;24.50;;;11.00;;
62707;SDS011;48769;51.624;5.886;2024-03-25T08:23:19;20.98;;;10.55;;
62707;SDS011;48769;51.624;5.886;2024-03-25T08:25:44;22.15;;;10.27;;
62707;SDS011;48769;51.624;5.886;2024-03-25T08:28:10;18.70;;;9.48;;
62707;SDS011;48769;51.624;5.886;2024-03-25T08:30:35;25.17;;;10.07;;
62707;SDS011;48769;51.624;5.886;2024-03-25T08:33:01;20.70;;;9.32;;
62707;SDS011;48769;51.624;5.886;2024-03-25T08:35:26;24.75;;;9.30;;
62707;SDS011;48769;51.624;5.886;2024-03-25T08:37:52;25.58;;;9.35;;
62707;SDS011;48769;51.624;5.886;2024-03-25T08:40:17;20.65;;;9.27;;
62707;SDS011;48769;51.624;5.886;2024-03-25T08:42:42;26.17;;;9.93;;
62707;SDS011;48769;51.624;5.886;2024-03-25T08:45:08;21.65;;;9.80;;
62707;SDS011;48769;51.624;5.886;2024-03-25T08:47:34;21.55;;;9.35;;
62707;SDS011;48769;51.624;5.886;2024-03-25T08:49:59;25.98;;;8.90;;
62707;SDS011;48769;51.624;5.886;2024-03-25T08:52:24;25.42;;;8.43;;
62707;SDS011;48769;51.624;5.886;2024-03-25T08:54:49;22.08;;;8.32;;
62707;SDS011;48769;51.624;5.886;2024-03-25T08:57:15;22.88;;;8.00;;
62707;SDS011;48769;51.624;5.886;2024-03-25T08:59:40;23.88;;;7.68;;
62707;SDS011;48769;51.624;5.886;2024-03-25T09:02:06;17.98;;;8.20;;
62707;SDS011;48769;51.624;5.886;2024-03-25T09:04:32;22.83;;;7.85;;
62707;SDS011;48769;51.624;5.886;2024-03-25T09:06:58;22.58;;;8.30;;
62707;SDS011;48769;51.624;5.886;2024-03-25T09:09:23;14.38;;;6.22;;
62707;SDS011;48769;51.624;5.886;2024-03-25T09:12:07;22.70;;;6.85;;
62707;SDS011;48769;51.624;5.886;2024-03-25T09:14:32;20.65;;;6.68;;
62707;SDS011;48769;51.624;5.886;2024-03-25T09:16:58;19.48;;;6.32;;
62707;SDS011;48769;51.624;5.886;2024-03-25T09:19:23;19.30;;;6.95;;
62707;SDS011;48769;51.624;5.886;2024-03-25T09:21:49;20.33;;;6.75;;
62707;SDS011;48769;51.624;5.886;2024-03-25T09:24:14;18.25;;;5.97;;
62707;SDS011;48769;51.624;5.886;2024-03-25T09:26:40;20.48;;;6.22;;
62707;SDS011;48769;51.624;5.886;2024-03-25T09:29:05;16.27;;;6.18;;
62707;SDS011;48769;51.624;5.886;2024-03-25T09:31:31;21.35;;;6.85;;
62707;SDS011;48769;51.624;5.886;2024-03-25T09:33:56;16.63;;;6.15;;
62707;SDS011;48769;51.624;5.886;2024-03-25T09:36:22;23.02;;;7.30;;
62707;SDS011;48769;51.624;5.886;2024-03-25T09:38:47;17.75;;;7.43;;
62707;SDS011;48769;51.624;5.886;2024-03-25T09:41:12;18.35;;;6.63;;
62707;SDS011;48769;51.624;5.886;2024-03-25T09:46:12;16.15;;;7.90;;
62707;SDS011;48769;51.624;5.886;2024-03-25T09:48:38;19.35;;;8.73;;
62707;SDS011;48769;51.624;5.886;2024-03-25T09:51:06;20.67;;;9.40;;
62707;SDS011;48769;51.624;5.886;2024-03-25T09:53:32;17.02;;;8.93;;
62707;SDS011;48769;51.624;5.886;2024-03-25T09:55:57;16.83;;;8.13;;
62707;SDS011;48769;51.624;5.886;2024-03-25T09:58:24;21.27;;;9.10;;
62707;SDS011;48769;51.624;5.886;2024-03-25T10:00:50;19.63;;;8.90;;
62707;SDS011;48769;51.624;5.886;2024-03-25T10:03:16;18.85;;;9.75;;
62707;SDS011;48769;51.624;5.886;2024-03-25T10:05:41;20.13;;;9.35;;
62707;SDS011;48769;51.624;5.886;2024-03-25T10:08:07;17.70;;;9.10;;
62707;SDS011;48769;51.624;5.886;2024-03-25T10:10:35;20.77;;;10.25;;
62707;SDS011;48769;51.624;5.886;2024-03-25T10:13:02;19.27;;;9.57;;
62707;SDS011;48769;51.624;5.886;2024-03-25T10:15:31;16.85;;;8.88;;
62707;SDS011;48769;51.624;5.886;2024-03-25T10:17:57;20.33;;;10.05;;
62707;SDS011;48769;51.624;5.886;2024-03-25T10:20:22;24.30;;;10.80;;
62707;SDS011;48769;51.624;5.886;2024-03-25T10:22:48;24.45;;;10.70;;
62707;SDS011;48769;51.624;5.886;2024-03-25T10:25:34;23.30;;;10.63;;
62707;SDS011;48769;51.624;5.886;2024-03-25T10:28:00;23.58;;;8.95;;
62707;SDS011;48769;51.624;5.886;2024-03-25T10:30:26;18.25;;;9.20;;
62707;SDS011;48769;51.624;5.886;2024-03-25T10:32:59;20.90;;;10.75;;
62707;SDS011;48769;51.624;5.886;2024-03-25T10:35:29;19.40;;;10.07;;
62707;SDS011;48769;51.624;5.886;2024-03-25T10:37:57;21.35;;;10.43;;
62707;SDS011;48769;51.624;5.886;2024-03-25T10:40:26;20.90;;;9.32;;
62707;SDS011;48769;51.624;5.886;2024-03-25T10:42:55;24.42;;;10.02;;
62707;SDS011;48769;51.624;5.886;2024-03-25T10:45:25;16.48;;;8.68;;
62707;SDS011;48769;51.624;5.886;2024-03-25T10:47:52;19.58;;;8.70;;
62707;SDS011;48769;51.624;5.886;2024-03-25T10:50:18;17.00;;;8.07;;
62707;SDS011;48769;51.624;5.886;2024-03-25T10:52:49;14.15;;;7.65;;
62707;SDS011;48769;51.624;5.886;2024-03-25T10:55:16;17.55;;;8.27;;
62707;SDS011;48769;51.624;5.886;2024-03-25T10:57:42;14.70;;;7.13;;
62707;SDS011;48769;51.624;5.886;2024-03-25T11:00:07;15.27;;;7.32;;
62707;SDS011;48769;51.624;5.886;2024-03-25T11:02:33;20.17;;;8.68;;
62707;SDS011;48769;51.624;5.886;2024-03-25T11:04:59;16.85;;;8.68;;
62707;SDS011;48769;51.624;5.886;2024-03-25T11:07:31;15.98;;;8.02;;
62707;SDS011;48769;51.624;5.886;2024-03-25T11:10:04;17.33;;;9.32;;
62707;SDS011;48769;51.624;5.886;2024-03-25T11:12:32;21.83;;;8.80;;
62707;SDS011;48769;51.624;5.886;2024-03-25T11:15:00;19.63;;;9.35;;
62707;SDS011;48769;51.624;5.886;2024-03-25T11:17:26;19.50;;;8.48;;
62707;SDS011;48769;51.624;5.886;2024-03-25T11:19:52;16.67;;;8.63;;
62707;SDS011;48769;51.624;5.886;2024-03-25T11:22:23;20.50;;;8.48;;
62707;SDS011;48769;51.624;5.886;2024-03-25T11:24:50;16.70;;;8.35;;
62707;SDS011;48769;51.624;5.886;2024-03-25T11:27:21;17.88;;;8.48;;
62707;SDS011;48769;51.624;5.886;2024-03-25T11:29:47;14.27;;;7.15;;
62707;SDS011;48769;51.624;5.886;2024-03-25T11:32:13;13.82;;;7.55;;
62707;SDS011;48769;51.624;5.886;2024-03-25T11:34:49;12.23;;;6.38;;
62707;SDS011;48769;51.624;5.886;2024-03-25T11:37:15;17.65;;;7.53;;
62707;SDS011;48769;51.624;5.886;2024-03-25T11:39:41;14.02;;;7.50;;
62707;SDS011;48769;51.624;5.886;2024-03-25T11:42:07;14.52;;;7.43;;
62707;SDS011;48769;51.624;5.886;2024-03-25T11:44:35;14.93;;;7.03;;
62707;SDS011;48769;51.624;5.886;2024-03-25T11:47:02;11.80;;;6.65;;
62707;SDS011;48769;51.624;5.886;2024-03-25T11:49:28;14.20;;;6.40;;
62707;SDS011;48769;51.624;5.886;2024-03-25T11:51:53;12.88;;;6.53;;
62707;SDS011;48769;51.624;5.886;2024-03-25T11:54:18;15.48;;;6.55;;
62707;SDS011;48769;51.624;5.886;2024-03-25T11:56:44;15.93;;;6.07;;
62707;SDS011;48769;51.624;5.886;2024-03-25T11:59:10;12.57;;;6.05;;
62707;SDS011;48769;51.624;5.886;2024-03-25T12:01:37;11.75;;;6.32;;
62707;SDS011;48769;51.624;5.886;2024-03-25T12:04:12;9.30;;;5.22;;
62707;SDS011;48769;51.624;5.886;2024-03-25T12:06:42;9.95;;;5.25;;
62707;SDS011;48769;51.624;5.886;2024-03-25T12:09:08;8.65;;;5.30;;
62707;SDS011;48769;51.624;5.886;2024-03-25T12:11:54;11.77;;;5.10;;
62707;SDS011;48769;51.624;5.886;2024-03-25T12:14:21;9.35;;;4.63;;
62707;SDS011;48769;51.624;5.886;2024-03-25T12:16:47;8.88;;;4.88;;
62707;SDS011;48769;51.624;5.886;2024-03-25T12:19:14;8.77;;;4.30;;
62707;SDS011;48769;51.624;5.886;2024-03-25T12:21:40;8.15;;;5.35;;
62707;SDS011;48769;51.624;5.886;2024-03-25T12:24:06;9.32;;;5.45;;
62707;SDS011;48769;51.624;5.886;2024-03-25T12:26:33;11.40;;;5.38;;
62707;SDS011;48769;51.624;5.886;2024-03-25T12:28:59;14.98;;;5.82;;
62707;SDS011;48769;51.624;5.886;2024-03-25T12:31:25;11.60;;;5.65;;
62707;SDS011;48769;51.624;5.886;2024-03-25T12:33:50;13.68;;;5.75;;
62707;SDS011;48769;51.624;5.886;2024-03-25T12:36:16;9.07;;;5.68;;
62707;SDS011;48769;51.624;5.886;2024-03-25T12:38:41;10.75;;;6.00;;
62707;SDS011;48769;51.624;5.886;2024-03-25T12:41:08;9.02;;;5.28;;
62707;SDS011;48769;51.624;5.886;2024-03-25T12:43:35;9.90;;;5.93;;
62707;SDS011;48769;51.624;5.886;2024-03-25T12:46:02;10.63;;;4.93;;
62707;SDS011;48769;51.624;5.886;2024-03-25T12:48:30;9.00;;;4.60;;
62707;SDS011;48769;51.624;5.886;2024-03-25T12:50:55;10.70;;;5.18;;
62707;SDS011;48769;51.624;5.886;2024-03-25T12:53:21;8.95;;;5.10;;
62707;SDS011;48769;51.624;5.886;2024-03-25T12:55:46;9.15;;;5.05;;
62707;SDS011;48769;51.624;5.886;2024-03-25T12:58:12;7.28;;;4.85;;
62707;SDS011;48769;51.624;5.886;2024-03-25T13:00:38;8.30;;;4.05;;
62707;SDS011;48769;51.624;5.886;2024-03-25T13:03:05;8.23;;;4.82;;
62707;SDS011;48769;51.624;5.886;2024-03-25T13:05:32;8.68;;;5.20;;
62707;SDS011;48769;51.624;5.886;2024-03-25T13:07:59;8.50;;;4.90;;
62707;SDS011;48769;51.624;5.886;2024-03-25T13:10:24;6.80;;;4.80;;
62707;SDS011;48769;51.624;5.886;2024-03-25T13:12:50;11.43;;;5.15;;
62707;SDS011;48769;51.624;5.886;2024-03-25T13:15:15;9.40;;;5.40;;
62707;SDS011;48769;51.624;5.886;2024-03-25T13:17:41;7.30;;;4.43;;
62707;SDS011;48769;51.624;5.886;2024-03-25T13:20:06;8.57;;;5.13;;
62707;SDS011;48769;51.624;5.886;2024-03-25T13:22:32;8.07;;;4.45;;
62707;SDS011;48769;51.624;5.886;2024-03-25T13:24:58;9.15;;;5.00;;
62707;SDS011;48769;51.624;5.886;2024-03-25T13:27:24;8.05;;;4.93;;
62707;SDS011;48769;51.624;5.886;2024-03-25T13:29:50;8.35;;;4.63;;
62707;SDS011;48769;51.624;5.886;2024-03-25T13:32:17;6.35;;;4.05;;
62707;SDS011;48769;51.624;5.886;2024-03-25T13:34:43;17.30;;;6.28;;
62707;SDS011;48769;51.624;5.886;2024-03-25T13:37:09;9.57;;;4.25;;
62707;SDS011;48769;51.624;5.886;2024-03-25T13:39:34;9.32;;;4.28;;
62707;SDS011;48769;51.624;5.886;2024-03-25T13:42:00;5.97;;;3.78;;
62707;SDS011;48769;51.624;5.886;2024-03-25T13:44:25;6.78;;;3.95;;
62707;SDS011;48769;51.624;5.886;2024-03-25T13:46:50;7.43;;;4.25;;
62707;SDS011;48769;51.624;5.886;2024-03-25T13:49:16;7.15;;;4.28;;
62707;SDS011;48769;51.624;5.886;2024-03-25T13:51:43;5.70;;;4.03;;
62707;SDS011;48769;51.624;5.886;2024-03-25T13:54:09;7.40;;;4.18;;
62707;SDS011;48769;51.624;5.886;2024-03-25T13:56:34;10.05;;;4.43;;
62707;SDS011;48769;51.624;5.886;2024-03-25T13:58:59;7.57;;;3.78;;
62707;SDS011;48769;51.624;5.886;2024-03-25T14:01:25;8.27;;;4.43;;
62707;SDS011;48769;51.624;5.886;2024-03-25T14:03:50;8.23;;;4.60;;
62707;SDS011;48769;51.624;5.886;2024-03-25T14:06:15;8.90;;;4.63;;
62707;SDS011;48769;51.624;5.886;2024-03-25T14:08:41;8.80;;;4.30;;
62707;SDS011;48769;51.624;5.886;2024-03-25T14:11:07;9.18;;;4.30;;
62707;SDS011;48769;51.624;5.886;2024-03-25T14:13:33;7.85;;;3.53;;
62707;SDS011;48769;51.624;5.886;2024-03-25T14:15:58;9.32;;;4.13;;
62707;SDS011;48769;51.624;5.886;2024-03-25T14:18:23;6.32;;;3.35;;
62707;SDS011;48769;51.624;5.886;2024-03-25T14:20:51;6.10;;;3.83;;
62707;SDS011;48769;51.624;5.886;2024-03-25T14:23:17;8.57;;;3.53;;
62707;SDS011;48769;51.624;5.886;2024-03-25T14:25:42;7.57;;;4.03;;
62707;SDS011;48769;51.624;5.886;2024-03-25T14:28:07;7.63;;;3.67;;